Time;durP1;ratioP1;P1;durP2;ratioP2;P2;SDS_P1;SDS_P2;PMS_P1;PMS_P2;Temp;Humidity;BMP_temperature;BMP_pressure;BME280_temperature;BME280_humidity;BME280_pressure;Samples;Min_cycle;Max_cycle;Signal;HPM_P1;HPM_P2
2023/05/20 00:09:16;;;;;;;20.55;13.65;;;;;;;12.05;71.91;101125.31;30819993;28;1155238;-64
2023/05/20 00:24:16;;;;;;;21.00;13.90;;;;;;;12.02;72.26;101128.28;30861282;28;97379;-64
2023/05/20 00:39:17;;;;;;;22.10;14.40;;;;;;;12.01;71.83;101123.94;30861236;28;97096;-65
2023/05/20 00:54:18;;;;;;;20.63;13.10;;;;;;;11.98;71.96;101126.94;30859107;28;96757;-65
2023/05/20 01:09:18;;;;;;;21.23;12.60;;;;;;;11.94;72.42;101126.41;30857823;28;96740;-72
2023/05/20 01:24:18;;;;;;;18.85;11.80;;;;;;;11.87;71.98;101111.16;30856533;28;98903;-64
2023/05/20 01:39:19;;;;;;;16.90;10.60;;;;;;;11.75;72.34;101122.06;30854374;28;98274;-66
2023/05/20 01:54:19;;;;;;;18.60;11.15;;;;;;;11.71;72.78;101115.34;30854281;28;96649;-67
2023/05/20 02:09:20;;;;;;;20.90;13.70;;;;;;;11.61;72.66;101114.63;30853978;28;96689;-67
2023/05/20 02:24:20;;;;;;;16.67;10.52;;;;;;;11.64;72.79;101116.97;30852139;28;113850;-69
2023/05/20 02:39:21;;;;;;;18.13;11.48;;;;;;;11.62;73.14;101118.97;30851933;28;102437;-70
2023/05/20 02:54:21;;;;;;;17.15;10.93;;;;;;;11.62;73.07;101116.31;30868042;28;96522;-66
2023/05/20 03:09:23;;;;;;;20.20;11.98;;;;;;;11.65;72.82;101113.31;30868390;28;97171;-69
2023/05/20 03:24:24;;;;;;;18.00;11.90;;;;;;;11.66;73.57;101099.81;30866466;28;96665;-68
2023/05/20 03:39:24;;;;;;;21.88;12.32;;;;;;;11.70;72.80;101113.69;30865572;28;105625;-71
2023/05/20 03:54:25;;;;;;;17.85;10.98;;;;;;;11.77;73.20;101127.22;30863013;28;96808;-70
2023/05/20 04:09:26;;;;;;;22.45;11.50;;;;;;;11.81;73.63;101140.13;30862958;28;96749;-71
2023/05/20 04:24:26;;;;;;;20.47;10.93;;;;;;;11.87;73.09;101145.84;30859216;28;97173;-65
2023/05/20 04:39:27;;;;;;;21.10;11.50;;;;;;;11.93;73.72;101142.53;30859557;28;97562;-69
2023/05/20 04:54:27;;;;;;;18.50;10.85;;;;;;;12.08;73.12;101133.00;30857300;28;96745;-64
2023/05/20 05:09:27;;;;;;;17.70;10.73;;;;;;;12.26;73.01;101129.44;30856588;28;112408;-65
2023/05/20 05:24:28;;;;;;;17.17;11.30;;;;;;;12.35;73.19;101134.66;30854738;28;101990;-70
2023/05/20 05:39:29;;;;;;;21.73;12.93;;;;;;;12.42;72.64;101150.91;30854863;28;96701;-69
2023/05/20 05:54:29;;;;;;;25.35;13.25;;;;;;;12.57;72.52;101137.78;30852800;28;96716;-70
2023/05/20 06:09:30;;;;;;;18.88;11.43;;;;;;;12.58;72.10;101154.66;30851192;28;97827;-67
2023/05/20 06:24:30;;;;;;;24.02;14.23;;;;;;;12.69;72.18;101147.19;30862504;28;97328;-64
2023/05/20 06:39:30;;;;;;;22.08;12.63;;;;;;;12.78;71.77;101145.41;30871278;28;96749;-64
2023/05/20 06:54:33;;;;;;;19.00;11.70;;;;;;;12.82;71.46;101156.59;30868832;28;97325;-65
2023/05/20 07:09:33;;;;;;;16.70;11.67;;;;;;;13.15;71.20;101146.84;30867885;28;97887;-66
2023/05/20 07:24:35;;;;;;;17.10;10.75;;;;;;;13.43;70.77;101140.41;30866034;28;97147;-68
2023/05/20 07:39:35;;;;;;;16.43;11.10;;;;;;;13.78;69.68;101141.06;30865339;28;96823;-66
2023/05/20 07:54:35;;;;;;;19.58;10.90;;;;;;;14.04;68.99;101135.53;30863053;28;110748;-65
2023/05/20 08:09:36;;;;;;;14.68;9.27;;;;;;;14.66;67.67;101132.19;30861378;28;99416;-71
2023/05/20 08:24:36;;;;;;;15.70;8.60;;;;;;;15.27;67.06;101114.56;30860490;28;96968;-71
2023/05/20 08:39:36;;;;;;;11.48;7.20;;;;;;;16.33;64.32;101091.28;30859087;28;103363;-65
2023/05/20 08:54:45;;;;;;;13.45;7.80;;;;;;;16.63;62.11;101103.88;30857227;28;106974;-68
2023/05/20 09:09:45;;;;;;;9.00;6.90;;;;;;;16.97;60.94;101089.00;30856939;28;96714;-67
2023/05/20 09:24:47;;;;;;;8.75;6.43;;;;;;;17.40;59.57;101094.38;30856180;28;96814;-66
2023/05/20 09:40:02;;;;;;;7.13;5.43;;;;;;;17.86;58.51;101077.75;30854012;28;97009;-67
2023/05/20 09:55:05;;;;;;;6.60;4.97;;;;;;;18.30;56.88;101067.66;30858963;28;97379;-67
2023/05/20 10:10:36;;;;;;;9.10;6.37;;;;;;;18.34;56.61;101068.09;30872563;28;97475;-65
2023/05/20 10:25:36;;;;;;;7.93;6.40;;;;;;;18.08;55.94;101069.63;30872194;28;96748;-68
2023/05/20 10:40:37;;;;;;;9.20;6.35;;;;;;;18.68;55.39;101042.91;30871886;28;101112;-71
2023/05/20 10:55:39;;;;;;;8.15;6.57;;;;;;;19.35;54.54;101031.41;30868855;28;96771;-67
2023/05/20 11:10:41;;;;;;;11.53;6.90;;;;;;;19.69;53.17;101035.75;30865932;28;97388;-70
2023/05/20 11:25:42;;;;;;;10.10;8.20;;;;;;;19.30;53.52;101002.34;30865781;28;97427;-70
2023/05/20 11:40:49;;;;;;;12.57;8.38;;;;;;;19.79;53.58;100998.31;30865971;28;97379;-66
2023/05/20 11:55:55;;;;;;;10.87;7.80;;;;;;;19.76;53.13;101022.22;30863463;28;97349;-65
2023/05/20 12:10:56;;;;;;;10.50;7.70;;;;;;;19.99;52.54;101004.75;30860860;28;97969;-66
2023/05/20 12:25:56;;;;;;;13.03;9.43;;;;;;;19.96;52.16;100984.38;30860134;28;96841;-64
2023/05/20 12:40:56;;;;;;;13.70;9.07;;;;;;;20.34;52.01;100977.31;30858763;28;107489;-65
2023/05/20 12:55:57;;;;;;;13.57;9.83;;;;;;;20.43;51.85;100957.09;30856255;28;108861;-69
2023/05/20 13:10:57;;;;;;;12.73;9.33;;;;;;;21.07;50.42;100955.22;30855322;28;96768;-64
2023/05/20 13:25:57;;;;;;;15.10;10.37;;;;;;;21.92;48.78;100953.75;30853773;28;111243;-68
2023/05/20 13:40:58;;;;;;;13.47;10.10;;;;;;;22.39;47.59;100936.06;30852897;28;108717;-65
2023/05/20 13:55:58;;;;;;;14.07;10.48;;;;;;;22.83;47.23;100920.38;30853337;28;97558;-64
2023/05/20 14:10:59;;;;;;;15.15;10.75;;;;;;;23.09;46.70;100912.81;30851372;28;97587;-65
2023/05/20 14:25:59;;;;;;;;;;;;;;;22.54;46.30;100878.63;30851609;28;100877;-65
2023/05/20 14:40:59;;;;;;;18.07;11.97;;;;;;;22.08;47.27;100843.78;30855976;28;96736;-64
2023/05/20 14:55:59;;;;;;;15.63;11.77;;;;;;;21.42;48.88;100846.28;30869489;28;97824;-64
2023/05/20 15:11:00;;;;;;;15.73;12.47;;;;;;;21.75;49.22;100836.13;30867337;28;98078;-64
2023/05/20 15:26:00;;;;;;;16.73;12.33;;;;;;;22.01;49.50;100804.25;30866310;28;97105;-65
2023/05/20 15:41:01;;;;;;;16.52;11.23;;;;;;;22.18;49.62;100786.25;30864000;28;97118;-65
2023/05/20 15:56:01;;;;;;;17.55;12.90;;;;;;;22.15;50.00;100779.38;30863297;28;96811;-66
2023/05/20 16:11:02;;;;;;;17.13;13.13;;;;;;;22.01;50.71;100767.09;30861543;28;97256;-72
2023/05/20 16:26:03;;;;;;;16.50;14.13;;;;;;;21.69;51.14;100761.09;30860253;28;96711;-70
2023/05/20 16:41:03;;;;;;;18.10;13.47;;;;;;;21.18;52.54;100741.53;30859064;28;96681;-67
2023/05/20 16:56:06;;;;;;;17.70;13.80;;;;;;;20.74;53.82;100741.59;30858850;28;96808;-68
2023/05/20 17:11:07;;;;;;;18.70;14.77;;;;;;;20.36;55.05;100742.56;30854392;28;96851;-65
2023/05/20 17:26:07;;;;;;;17.63;13.40;;;;;;;19.92;55.96;100734.38;30855050;28;96743;-65
2023/05/20 17:41:07;;;;;;;18.97;13.60;;;;;;;19.49;57.48;100735.88;30854098;28;97268;-65
2023/05/20 17:56:08;;;;;;;19.90;15.75;;;;;;;18.97;58.65;100729.63;30853443;28;106585;-65
2023/05/20 18:11:09;;;;;;;24.55;17.38;;;;;;;18.52;60.32;100725.78;30851439;28;97084;-67
2023/05/20 18:26:09;;;;;;;38.85;26.60;;;;;;;18.10;61.58;100711.69;30869970;28;96911;-69
2023/05/20 18:41:09;;;;;;;25.35;18.40;;;;;;;17.61;62.93;100704.78;30871253;28;96964;-66
2023/05/20 18:56:10;;;;;;;27.65;19.77;;;;;;;17.19;64.28;100704.84;30869051;28;96772;-71
2023/05/20 19:11:11;;;;;;;31.27;22.00;;;;;;;16.79;65.36;100700.06;30867263;28;96851;-69
2023/05/20 19:26:11;;;;;;;29.73;22.63;;;;;;;16.44;66.56;100693.88;30865302;28;103965;-69
2023/05/20 19:41:12;;;;;;;33.22;24.83;;;;;;;16.14;67.75;100699.44;30864972;28;97025;-66
2023/05/20 19:56:18;;;;;;;35.90;25.70;;;;;;;15.83;68.33;100709.50;30863214;28;97488;-69
2023/05/20 20:11:18;;;;;;;40.50;31.30;;;;;;;15.53;69.44;100706.91;30860760;28;97006;-72
2023/05/20 20:26:21;;;;;;;42.53;29.63;;;;;;;15.34;70.42;100718.25;30860874;28;96743;-67
2023/05/20 20:41:21;;;;;;;36.77;26.03;;;;;;;15.18;71.03;100728.16;30859352;28;97106;-72
2023/05/20 20:56:22;;;;;;;36.67;25.00;;;;;;;15.07;72.18;100718.75;30859148;28;96893;-71
2023/05/20 21:11:25;;;;;;;37.33;25.30;;;;;;;15.03;72.69;100704.03;30858146;28;97425;-65
2023/05/20 21:26:25;;;;;;;33.67;24.87;;;;;;;14.98;73.28;100703.78;30857282;28;96698;-65
2023/05/20 21:41:26;;;;;;;31.20;23.42;;;;;;;14.92;74.00;100701.84;30856290;28;96646;-66
2023/05/20 21:56:26;;;;;;;34.35;23.63;;;;;;;14.86;74.65;100705.28;30854305;28;96774;-67
2023/05/20 22:11:26;;;;;;;37.50;23.90;;;;;;;14.78;74.54;100700.00;30853411;28;96658;-65
2023/05/20 22:26:27;;;;;;;31.10;23.20;;;;;;;14.77;75.03;100691.13;30852783;28;97218;-65
2023/05/20 22:41:27;;;;;;;38.03;24.55;;;;;;;14.69;75.54;100700.09;30852008;28;97662;-66
2023/05/20 22:56:28;;;;;;;36.42;25.40;;;;;;;14.50;75.78;100680.00;30850632;28;96710;-67
2023/05/20 23:11:28;;;;;;;28.88;23.60;;;;;;;14.31;76.21;100685.88;30866359;28;96917;-64
2023/05/20 23:26:30;;;;;;;32.08;22.45;;;;;;;14.15;76.41;100677.00;30867453;28;96721;-65
2023/05/20 23:41:31;;;;;;;29.57;20.87;;;;;;;13.96;76.93;100667.63;30866788;28;97264;-65
2023/05/20 23:56:31;;;;;;;25.43;18.43;;;;;;;13.83;77.23;100660.22;30864919;28;96815;-66
